McChord Air Force Base
KTCM : now visible

Airfield :











YOU CAN JOIN US ON...

 
LOGIN :

Register | Disclaimer

   EN    FR    IT 

 









Legend :    VFR   Marginal VFR   IFR   Intensive IFR   Very Intensive IFR
Visi :
Ceiling :
>= 8 km
>= 3000ft
5 to 8 km
1000 to 3000 ft
1500m to 5 km
500 to 1000 ft
800 to 1500m
200 to 500 ft
< 800m
< 200 ft
Symbols :   Thunderstorms  Fog  Heavy snow  Heavy precipitations  Wind > 20 kt






- Airport Elevation : 322 ft


KTCM - McChord Air Force Base

CURRENT METAR :
  • 251013Z AUTO 22004KT 10SM -RA SCT025 BKN032 OVC040 05/03 A2997 RMK AO2 SLP154 $

EXPIRED METARs :
  • 250958Z AUTO 23004KT 10SM -RA BKN026 OVC035 05/03 A2996 RMK AO2 RAB49 CIG 025V030 SLP150 P0000 T00480033 $
  • 250938Z AUTO 20004KT 10SM FEW022 BKN029 BKN039 OVC060 04/03 A2996 RMK AO2 CIG 029V040 BKN029 V SCT SLP151 $
  • 250858Z AUTO 17006KT 10SM FEW120 03/03 A2996 RMK AO2 SLP151 T00340025 51007 $
  • 250758Z AUTO 17008KT 10SM CLR 03/02 A2996 RMK AO2 SLP151 T00310021 401090031 $

TAF TAF KTCM
Valid from the 25 at 05:00 until the 26 at 11:00 UTC


250500Z 2505/2611 19010G15KT 8000 -SHRA BKN030 610409 QNH2992INS
BECMG 2516/2517 20012KT 9999 VCSH BKN020 OVC040 610409 QNH3000INS
BECMG 2522/2523 21009KT 9999 NSW BKN015 OVC030 620409 QNH3009INS
BECMG 2602/2603 17005KT 4800 BR BKN007 OVC015 620405 QNH3021INS
BECMG 2608/2609 16005KT 0800 FG VV002 QNH3032INS TX08/2522Z TN04/2513Z
KZSE FIR / North America



MET'MAP, your aeronautical weather chart ! - Copyright ORBIFLY December 2007 - Disclaimer

ORBIFLY MET'MAP TEAM :

Programming & Development : Alexandra Zaïnal
Concept & original design : Baudouin d'Aumeries
Assistance for programming : Marc-Olivier Méhu
Technical & hardware support : Manuel Goepfert

Contact : metmap@orbifly.com




SOURCES & CREDITS :

   NOAA       Earth
Advisory